sensor_id;sensor_type;location;lat;lon;timestamp;P1;durP1;ratioP1;P2;durP2;ratioP2
59147;SDS011;44930;52.878;6.168;2022-09-24T00:00:36;64.00;;;48.47;;
59147;SDS011;44930;52.878;6.168;2022-09-24T00:03:02;66.65;;;51.40;;
59147;SDS011;44930;52.878;6.168;2022-09-24T00:05:27;60.80;;;47.42;;
59147;SDS011;44930;52.878;6.168;2022-09-24T00:07:53;63.83;;;52.35;;
59147;SDS011;44930;52.878;6.168;2022-09-24T00:10:19;65.07;;;50.60;;
59147;SDS011;44930;52.878;6.168;2022-09-24T00:12:45;68.35;;;52.78;;
59147;SDS011;44930;52.878;6.168;2022-09-24T00:15:11;71.70;;;51.83;;
59147;SDS011;44930;52.878;6.168;2022-09-24T00:17:37;65.88;;;50.83;;
59147;SDS011;44930;52.878;6.168;2022-09-24T00:20:03;67.45;;;53.63;;
59147;SDS011;44930;52.878;6.168;2022-09-24T00:22:30;65.75;;;49.53;;
59147;SDS011;44930;52.878;6.168;2022-09-24T00:24:56;65.55;;;50.92;;
59147;SDS011;44930;52.878;6.168;2022-09-24T00:27:41;64.25;;;50.45;;
59147;SDS011;44930;52.878;6.168;2022-09-24T00:30:06;76.40;;;53.78;;
59147;SDS011;44930;52.878;6.168;2022-09-24T00:32:32;61.28;;;48.45;;
59147;SDS011;44930;52.878;6.168;2022-09-24T00:34:58;69.63;;;51.80;;
59147;SDS011;44930;52.878;6.168;2022-09-24T00:37:23;66.82;;;51.78;;
59147;SDS011;44930;52.878;6.168;2022-09-24T00:39:49;62.65;;;49.42;;
59147;SDS011;44930;52.878;6.168;2022-09-24T00:42:17;61.55;;;49.83;;
59147;SDS011;44930;52.878;6.168;2022-09-24T00:49:57;64.85;;;48.90;;
59147;SDS011;44930;52.878;6.168;2022-09-24T00:52:30;64.38;;;50.53;;
59147;SDS011;44930;52.878;6.168;2022-09-24T00:54:56;64.38;;;52.30;;
59147;SDS011;44930;52.878;6.168;2022-09-24T00:57:22;61.58;;;48.10;;
59147;SDS011;44930;52.878;6.168;2022-09-24T00:59:48;64.43;;;49.17;;
59147;SDS011;44930;52.878;6.168;2022-09-24T01:02:14;69.05;;;54.10;;
59147;SDS011;44930;52.878;6.168;2022-09-24T01:04:40;63.65;;;51.45;;
59147;SDS011;44930;52.878;6.168;2022-09-24T01:07:05;63.85;;;50.40;;
59147;SDS011;44930;52.878;6.168;2022-09-24T01:09:31;65.65;;;53.15;;
59147;SDS011;44930;52.878;6.168;2022-09-24T01:12:03;69.35;;;51.70;;
59147;SDS011;44930;52.878;6.168;2022-09-24T01:23:43;63.90;;;49.80;;
59147;SDS011;44930;52.878;6.168;2022-09-24T01:32:00;60.70;;;46.70;;
59147;SDS011;44930;52.878;6.168;2022-09-24T01:34:53;67.90;;;50.03;;
59147;SDS011;44930;52.878;6.168;2022-09-24T01:37:21;65.10;;;48.90;;
59147;SDS011;44930;52.878;6.168;2022-09-24T01:39:50;62.03;;;48.47;;
59147;SDS011;44930;52.878;6.168;2022-09-24T01:42:17;63.30;;;48.05;;
59147;SDS011;44930;52.878;6.168;2022-09-24T01:44:44;59.42;;;47.60;;
59147;SDS011;44930;52.878;6.168;2022-09-24T01:47:13;64.05;;;47.78;;
59147;SDS011;44930;52.878;6.168;2022-09-24T01:52:16;62.22;;;49.10;;
59147;SDS011;44930;52.878;6.168;2022-09-24T01:54:45;65.10;;;49.53;;
59147;SDS011;44930;52.878;6.168;2022-09-24T01:57:22;63.53;;;49.15;;
59147;SDS011;44930;52.878;6.168;2022-09-24T02:05:50;63.03;;;49.05;;
59147;SDS011;44930;52.878;6.168;2022-09-24T02:07:50;68.32;;;50.10;;
59147;SDS011;44930;52.878;6.168;2022-09-24T02:10:23;63.38;;;48.38;;
59147;SDS011;44930;52.878;6.168;2022-09-24T02:12:50;58.95;;;47.33;;
59147;SDS011;44930;52.878;6.168;2022-09-24T02:15:25;62.72;;;49.05;;
59147;SDS011;44930;52.878;6.168;2022-09-24T02:17:56;60.05;;;48.15;;
59147;SDS011;44930;52.878;6.168;2022-09-24T02:20:23;63.92;;;48.45;;
59147;SDS011;44930;52.878;6.168;2022-09-24T02:22:51;64.45;;;48.78;;
59147;SDS011;44930;52.878;6.168;2022-09-24T02:25:22;66.43;;;49.75;;
59147;SDS011;44930;52.878;6.168;2022-09-24T02:27:53;60.88;;;47.47;;
59147;SDS011;44930;52.878;6.168;2022-09-24T02:30:20;63.53;;;50.13;;
59147;SDS011;44930;52.878;6.168;2022-09-24T02:32:45;61.85;;;47.50;;
59147;SDS011;44930;52.878;6.168;2022-09-24T02:35:13;65.90;;;49.63;;
59147;SDS011;44930;52.878;6.168;2022-09-24T02:37:40;61.92;;;49.40;;
59147;SDS011;44930;52.878;6.168;2022-09-24T02:40:08;63.63;;;50.25;;
59147;SDS011;44930;52.878;6.168;2022-09-24T02:42:36;65.82;;;49.75;;
59147;SDS011;44930;52.878;6.168;2022-09-24T02:45:02;65.72;;;50.38;;
59147;SDS011;44930;52.878;6.168;2022-09-24T02:47:28;64.60;;;49.60;;
59147;SDS011;44930;52.878;6.168;2022-09-24T02:49:54;65.70;;;52.08;;
59147;SDS011;44930;52.878;6.168;2022-09-24T02:52:20;67.70;;;50.28;;
59147;SDS011;44930;52.878;6.168;2022-09-24T02:54:46;63.25;;;48.13;;
59147;SDS011;44930;52.878;6.168;2022-09-24T02:57:14;64.80;;;49.65;;
59147;SDS011;44930;52.878;6.168;2022-09-24T02:59:40;72.22;;;52.85;;
59147;SDS011;44930;52.878;6.168;2022-09-24T03:02:06;64.85;;;49.65;;
59147;SDS011;44930;52.878;6.168;2022-09-24T03:04:31;66.78;;;50.75;;
59147;SDS011;44930;52.878;6.168;2022-09-24T03:06:57;65.78;;;48.80;;
59147;SDS011;44930;52.878;6.168;2022-09-24T03:09:23;62.63;;;48.95;;
59147;SDS011;44930;52.878;6.168;2022-09-24T03:11:48;65.43;;;49.63;;
59147;SDS011;44930;52.878;6.168;2022-09-24T03:14:14;69.18;;;50.85;;
59147;SDS011;44930;52.878;6.168;2022-09-24T03:16:39;59.90;;;46.83;;
59147;SDS011;44930;52.878;6.168;2022-09-24T03:19:05;61.15;;;46.97;;
59147;SDS011;44930;52.878;6.168;2022-09-24T03:21:31;63.63;;;49.00;;
59147;SDS011;44930;52.878;6.168;2022-09-24T03:23:57;62.97;;;49.08;;
59147;SDS011;44930;52.878;6.168;2022-09-24T03:26:24;61.50;;;47.72;;
59147;SDS011;44930;52.878;6.168;2022-09-24T03:28:50;60.42;;;47.70;;
59147;SDS011;44930;52.878;6.168;2022-09-24T03:31:16;65.28;;;47.75;;
59147;SDS011;44930;52.878;6.168;2022-09-24T03:33:42;60.53;;;46.60;;
59147;SDS011;44930;52.878;6.168;2022-09-24T03:36:11;57.90;;;45.08;;
59147;SDS011;44930;52.878;6.168;2022-09-24T03:38:37;58.47;;;46.08;;
59147;SDS011;44930;52.878;6.168;2022-09-24T03:41:04;62.05;;;46.38;;
59147;SDS011;44930;52.878;6.168;2022-09-24T03:43:31;60.53;;;46.22;;
59147;SDS011;44930;52.878;6.168;2022-09-24T03:45:57;59.22;;;44.83;;
59147;SDS011;44930;52.878;6.168;2022-09-24T03:48:24;61.92;;;46.55;;
59147;SDS011;44930;52.878;6.168;2022-09-24T03:50:50;61.17;;;46.13;;
59147;SDS011;44930;52.878;6.168;2022-09-24T03:53:16;65.32;;;47.63;;
59147;SDS011;44930;52.878;6.168;2022-09-24T03:55:43;61.03;;;46.00;;
59147;SDS011;44930;52.878;6.168;2022-09-24T03:58:10;60.75;;;45.90;;
59147;SDS011;44930;52.878;6.168;2022-09-24T04:00:36;59.67;;;44.85;;
59147;SDS011;44930;52.878;6.168;2022-09-24T04:03:02;63.35;;;45.15;;
59147;SDS011;44930;52.878;6.168;2022-09-24T04:05:28;62.47;;;46.40;;
59147;SDS011;44930;52.878;6.168;2022-09-24T04:07:54;63.97;;;46.20;;
59147;SDS011;44930;52.878;6.168;2022-09-24T04:10:20;62.60;;;46.63;;
59147;SDS011;44930;52.878;6.168;2022-09-24T04:12:47;58.50;;;44.15;;
59147;SDS011;44930;52.878;6.168;2022-09-24T04:15:12;60.47;;;43.92;;
59147;SDS011;44930;52.878;6.168;2022-09-24T04:17:39;66.80;;;46.17;;
59147;SDS011;44930;52.878;6.168;2022-09-24T04:20:05;60.50;;;43.67;;
59147;SDS011;44930;52.878;6.168;2022-09-24T04:22:33;60.85;;;47.22;;
59147;SDS011;44930;52.878;6.168;2022-09-24T04:24:58;63.38;;;45.67;;
59147;SDS011;44930;52.878;6.168;2022-09-24T04:27:24;62.70;;;44.28;;
59147;SDS011;44930;52.878;6.168;2022-09-24T04:29:50;60.70;;;47.33;;
59147;SDS011;44930;52.878;6.168;2022-09-24T04:32:18;62.85;;;44.58;;
59147;SDS011;44930;52.878;6.168;2022-09-24T04:34:43;63.38;;;45.95;;
59147;SDS011;44930;52.878;6.168;2022-09-24T04:37:09;59.97;;;46.13;;
59147;SDS011;44930;52.878;6.168;2022-09-24T04:39:34;62.88;;;45.65;;
59147;SDS011;44930;52.878;6.168;2022-09-24T04:42:00;61.03;;;44.80;;
59147;SDS011;44930;52.878;6.168;2022-09-24T04:44:26;64.50;;;43.85;;
59147;SDS011;44930;52.878;6.168;2022-09-24T04:46:53;61.90;;;44.03;;
59147;SDS011;44930;52.878;6.168;2022-09-24T04:49:26;64.10;;;44.63;;
59147;SDS011;44930;52.878;6.168;2022-09-24T04:51:53;68.45;;;47.17;;
59147;SDS011;44930;52.878;6.168;2022-09-24T04:54:22;65.32;;;46.97;;
59147;SDS011;44930;52.878;6.168;2022-09-24T04:56:49;62.42;;;46.63;;
59147;SDS011;44930;52.878;6.168;2022-09-24T04:59:15;67.25;;;48.05;;
59147;SDS011;44930;52.878;6.168;2022-09-24T05:01:40;68.35;;;49.45;;
59147;SDS011;44930;52.878;6.168;2022-09-24T05:04:06;65.18;;;48.42;;
59147;SDS011;44930;52.878;6.168;2022-09-24T05:06:32;65.03;;;47.50;;
59147;SDS011;44930;52.878;6.168;2022-09-24T05:08:58;65.38;;;47.92;;
59147;SDS011;44930;52.878;6.168;2022-09-24T05:11:23;60.85;;;46.17;;
59147;SDS011;44930;52.878;6.168;2022-09-24T05:13:49;58.50;;;45.03;;
59147;SDS011;44930;52.878;6.168;2022-09-24T05:16:14;58.40;;;43.70;;
59147;SDS011;44930;52.878;6.168;2022-09-24T05:18:40;62.03;;;45.50;;
59147;SDS011;44930;52.878;6.168;2022-09-24T05:21:05;63.97;;;46.67;;
59147;SDS011;44930;52.878;6.168;2022-09-24T05:23:31;69.35;;;48.45;;
59147;SDS011;44930;52.878;6.168;2022-09-24T05:25:56;69.18;;;46.45;;
59147;SDS011;44930;52.878;6.168;2022-09-24T05:28:41;57.63;;;44.08;;
59147;SDS011;44930;52.878;6.168;2022-09-24T05:31:06;70.53;;;47.78;;
59147;SDS011;44930;52.878;6.168;2022-09-24T05:33:33;61.17;;;44.40;;
59147;SDS011;44930;52.878;6.168;2022-09-24T05:35:58;69.75;;;45.72;;
59147;SDS011;44930;52.878;6.168;2022-09-24T05:38:24;67.05;;;47.42;;
59147;SDS011;44930;52.878;6.168;2022-09-24T05:40:49;75.55;;;47.83;;
59147;SDS011;44930;52.878;6.168;2022-09-24T05:43:16;64.63;;;44.55;;
59147;SDS011;44930;52.878;6.168;2022-09-24T05:45:43;67.07;;;46.65;;
59147;SDS011;44930;52.878;6.168;2022-09-24T05:48:10;64.93;;;44.10;;
59147;SDS011;44930;52.878;6.168;2022-09-24T05:50:36;66.00;;;45.80;;
59147;SDS011;44930;52.878;6.168;2022-09-24T05:53:02;74.30;;;47.75;;
59147;SDS011;44930;52.878;6.168;2022-09-24T05:55:29;97.85;;;48.65;;
59147;SDS011;44930;52.878;6.168;2022-09-24T05:57:54;67.53;;;45.97;;
59147;SDS011;44930;52.878;6.168;2022-09-24T06:00:20;76.38;;;49.05;;
59147;SDS011;44930;52.878;6.168;2022-09-24T06:02:46;69.03;;;45.60;;
59147;SDS011;44930;52.878;6.168;2022-09-24T06:05:11;91.07;;;50.88;;
59147;SDS011;44930;52.878;6.168;2022-09-24T06:07:37;69.68;;;45.53;;
59147;SDS011;44930;52.878;6.168;2022-09-24T06:10:03;63.63;;;45.65;;
59147;SDS011;44930;52.878;6.168;2022-09-24T06:12:31;70.38;;;47.45;;
59147;SDS011;44930;52.878;6.168;2022-09-24T06:14:59;65.05;;;44.65;;
59147;SDS011;44930;52.878;6.168;2022-09-24T06:17:25;60.65;;;41.47;;
59147;SDS011;44930;52.878;6.168;2022-09-24T06:19:51;61.95;;;38.72;;
59147;SDS011;44930;52.878;6.168;2022-09-24T06:22:17;56.40;;;39.10;;
59147;SDS011;44930;52.878;6.168;2022-09-24T06:24:42;51.80;;;37.15;;
59147;SDS011;44930;52.878;6.168;2022-09-24T06:27:08;54.10;;;37.00;;
59147;SDS011;44930;52.878;6.168;2022-09-24T06:29:33;56.03;;;39.25;;
59147;SDS011;44930;52.878;6.168;2022-09-24T06:31:59;64.88;;;41.28;;
59147;SDS011;44930;52.878;6.168;2022-09-24T06:34:26;58.13;;;39.88;;
59147;SDS011;44930;52.878;6.168;2022-09-24T06:36:55;51.95;;;36.75;;
59147;SDS011;44930;52.878;6.168;2022-09-24T06:39:21;51.72;;;37.45;;
59147;SDS011;44930;52.878;6.168;2022-09-24T06:41:48;53.33;;;37.08;;
59147;SDS011;44930;52.878;6.168;2022-09-24T06:44:15;56.15;;;37.55;;
59147;SDS011;44930;52.878;6.168;2022-09-24T06:46:41;53.38;;;36.40;;
59147;SDS011;44930;52.878;6.168;2022-09-24T06:49:07;64.32;;;38.55;;
59147;SDS011;44930;52.878;6.168;2022-09-24T06:51:32;52.63;;;36.80;;
59147;SDS011;44930;52.878;6.168;2022-09-24T06:53:58;64.55;;;38.88;;
59147;SDS011;44930;52.878;6.168;2022-09-24T06:56:23;62.53;;;39.42;;
59147;SDS011;44930;52.878;6.168;2022-09-24T06:58:49;57.22;;;38.60;;
59147;SDS011;44930;52.878;6.168;2022-09-24T07:01:15;67.57;;;41.53;;
59147;SDS011;44930;52.878;6.168;2022-09-24T07:03:41;63.35;;;38.33;;
59147;SDS011;44930;52.878;6.168;2022-09-24T07:06:06;56.45;;;37.50;;
59147;SDS011;44930;52.878;6.168;2022-09-24T07:08:32;52.20;;;35.90;;
59147;SDS011;44930;52.878;6.168;2022-09-24T07:10:58;62.58;;;38.45;;
59147;SDS011;44930;52.878;6.168;2022-09-24T07:13:24;65.13;;;41.20;;
59147;SDS011;44930;52.878;6.168;2022-09-24T07:15:50;53.85;;;36.38;;
59147;SDS011;44930;52.878;6.168;2022-09-24T07:18:16;56.13;;;35.25;;
59147;SDS011;44930;52.878;6.168;2022-09-24T07:20:43;50.67;;;31.83;;
59147;SDS011;44930;52.878;6.168;2022-09-24T07:23:10;46.30;;;27.95;;
59147;SDS011;44930;52.878;6.168;2022-09-24T07:25:36;42.63;;;26.92;;
59147;SDS011;44930;52.878;6.168;2022-09-24T07:28:03;34.53;;;22.23;;
59147;SDS011;44930;52.878;6.168;2022-09-24T07:30:31;33.20;;;17.85;;
59147;SDS011;44930;52.878;6.168;2022-09-24T07:32:57;24.30;;;15.18;;
59147;SDS011;44930;52.878;6.168;2022-09-24T07:35:24;35.53;;;18.48;;
59147;SDS011;44930;52.878;6.168;2022-09-24T07:38:00;25.75;;;12.55;;
59147;SDS011;44930;52.878;6.168;2022-09-24T07:40:27;25.33;;;12.27;;
59147;SDS011;44930;52.878;6.168;2022-09-24T07:42:53;24.25;;;9.55;;
59147;SDS011;44930;52.878;6.168;2022-09-24T07:45:23;20.90;;;8.40;;
59147;SDS011;44930;52.878;6.168;2022-09-24T07:47:55;18.65;;;8.38;;
59147;SDS011;44930;52.878;6.168;2022-09-24T07:50:21;21.30;;;7.05;;
59147;SDS011;44930;52.878;6.168;2022-09-24T07:52:50;15.05;;;6.55;;
59147;SDS011;44930;52.878;6.168;2022-09-24T07:55:16;14.27;;;5.07;;
59147;SDS011;44930;52.878;6.168;2022-09-24T07:57:49;14.63;;;2.58;;
59147;SDS011;44930;52.878;6.168;2022-09-24T08:00:16;13.63;;;4.00;;
59147;SDS011;44930;52.878;6.168;2022-09-24T08:02:43;17.63;;;3.05;;
59147;SDS011;44930;52.878;6.168;2022-09-24T08:05:10;21.73;;;3.42;;
59147;SDS011;44930;52.878;6.168;2022-09-24T08:07:36;12.23;;;2.60;;
59147;SDS011;44930;52.878;6.168;2022-09-24T08:10:01;11.18;;;2.55;;
59147;SDS011;44930;52.878;6.168;2022-09-24T08:12:27;14.85;;;2.47;;
59147;SDS011;44930;52.878;6.168;2022-09-24T08:14:53;14.00;;;2.63;;
59147;SDS011;44930;52.878;6.168;2022-09-24T08:17:19;12.38;;;2.22;;
59147;SDS011;44930;52.878;6.168;2022-09-24T08:19:45;10.75;;;1.90;;
59147;SDS011;44930;52.878;6.168;2022-09-24T08:22:11;11.45;;;1.95;;
59147;SDS011;44930;52.878;6.168;2022-09-24T08:24:38;11.40;;;2.10;;
59147;SDS011;44930;52.878;6.168;2022-09-24T08:27:05;10.88;;;2.22;;
59147;SDS011;44930;52.878;6.168;2022-09-24T08:29:31;11.20;;;2.45;;
59147;SDS011;44930;52.878;6.168;2022-09-24T08:31:57;14.30;;;2.28;;
59147;SDS011;44930;52.878;6.168;2022-09-24T08:34:23;9.45;;;1.88;;
59147;SDS011;44930;52.878;6.168;2022-09-24T08:36:49;12.88;;;2.78;;
59147;SDS011;44930;52.878;6.168;2022-09-24T08:39:14;11.70;;;1.50;;
59147;SDS011;44930;52.878;6.168;2022-09-24T08:41:46;18.35;;;2.30;;
59147;SDS011;44930;52.878;6.168;2022-09-24T08:44:30;11.82;;;2.72;;
59147;SDS011;44930;52.878;6.168;2022-09-24T08:47:32;7.55;;;1.50;;
59147;SDS011;44930;52.878;6.168;2022-09-24T08:50:16;8.40;;;1.65;;
59147;SDS011;44930;52.878;6.168;2022-09-24T08:53:06;7.53;;;1.85;;
59147;SDS011;44930;52.878;6.168;2022-09-24T08:55:51;4.85;;;1.48;;
59147;SDS011;44930;52.878;6.168;2022-09-24T09:01:13;9.45;;;1.85;;
59147;SDS011;44930;52.878;6.168;2022-09-24T09:09:14;9.40;;;1.85;;
59147;SDS011;44930;52.878;6.168;2022-09-24T09:11:42;12.48;;;1.88;;
59147;SDS011;44930;52.878;6.168;2022-09-24T09:14:37;12.07;;;1.98;;
59147;SDS011;44930;52.878;6.168;2022-09-24T09:19:52;7.90;;;1.67;;
59147;SDS011;44930;52.878;6.168;2022-09-24T09:22:24;10.05;;;1.75;;
59147;SDS011;44930;52.878;6.168;2022-09-24T09:24:54;9.40;;;1.52;;
59147;SDS011;44930;52.878;6.168;2022-09-24T09:27:24;6.78;;;1.85;;
59147;SDS011;44930;52.878;6.168;2022-09-24T09:29:57;8.98;;;1.65;;
59147;SDS011;44930;52.878;6.168;2022-09-24T09:35:23;7.05;;;1.27;;
59147;SDS011;44930;52.878;6.168;2022-09-24T09:44:00;9.15;;;1.50;;
59147;SDS011;44930;52.878;6.168;2022-09-24T09:46:54;11.07;;;2.08;;
59147;SDS011;44930;52.878;6.168;2022-09-24T09:49:30;9.95;;;2.15;;
59147;SDS011;44930;52.878;6.168;2022-09-24T09:51:59;14.00;;;2.60;;
59147;SDS011;44930;52.878;6.168;2022-09-24T09:54:34;6.82;;;1.30;;
59147;SDS011;44930;52.878;6.168;2022-09-24T09:57:01;5.95;;;1.52;;
59147;SDS011;44930;52.878;6.168;2022-09-24T09:59:27;9.02;;;1.58;;
59147;SDS011;44930;52.878;6.168;2022-09-24T10:01:54;7.82;;;1.40;;
59147;SDS011;44930;52.878;6.168;2022-09-24T10:04:33;7.72;;;1.20;;
59147;SDS011;44930;52.878;6.168;2022-09-24T10:07:25;7.80;;;1.45;;
59147;SDS011;44930;52.878;6.168;2022-09-24T10:12:53;6.45;;;2.75;;
59147;SDS011;44930;52.878;6.168;2022-09-24T10:15:32;7.15;;;1.17;;
59147;SDS011;44930;52.878;6.168;2022-09-24T10:17:58;10.73;;;1.27;;
59147;SDS011;44930;52.878;6.168;2022-09-24T10:20:25;6.68;;;1.48;;
59147;SDS011;44930;52.878;6.168;2022-09-24T10:22:57;6.38;;;1.80;;
59147;SDS011;44930;52.878;6.168;2022-09-24T10:25:29;9.75;;;1.20;;
59147;SDS011;44930;52.878;6.168;2022-09-24T10:27:56;12.38;;;1.98;;
59147;SDS011;44930;52.878;6.168;2022-09-24T10:30:47;7.10;;;1.35;;
59147;SDS011;44930;52.878;6.168;2022-09-24T10:33:15;8.32;;;1.85;;
59147;SDS011;44930;52.878;6.168;2022-09-24T10:35:42;5.35;;;1.42;;
59147;SDS011;44930;52.878;6.168;2022-09-24T10:38:15;6.00;;;1.67;;
59147;SDS011;44930;52.878;6.168;2022-09-24T10:40:44;5.00;;;1.20;;
59147;SDS011;44930;52.878;6.168;2022-09-24T10:43:20;7.60;;;1.02;;
59147;SDS011;44930;52.878;6.168;2022-09-24T10:45:59;6.07;;;1.00;;
59147;SDS011;44930;52.878;6.168;2022-09-24T10:48:40;4.55;;;0.70;;
59147;SDS011;44930;52.878;6.168;2022-09-24T10:51:19;7.47;;;1.13;;
59147;SDS011;44930;52.878;6.168;2022-09-24T10:56:35;5.75;;;0.70;;
59147;SDS011;44930;52.878;6.168;2022-09-24T10:59:31;3.10;;;1.38;;
59147;SDS011;44930;52.878;6.168;2022-09-24T11:04:43;3.35;;;0.82;;
59147;SDS011;44930;52.878;6.168;2022-09-24T11:10:19;9.38;;;1.05;;
59147;SDS011;44930;52.878;6.168;2022-09-24T11:13:13;7.97;;;1.20;;
59147;SDS011;44930;52.878;6.168;2022-09-24T11:18:49;8.77;;;1.50;;
59147;SDS011;44930;52.878;6.168;2022-09-24T11:24:40;12.65;;;2.28;;
59147;SDS011;44930;52.878;6.168;2022-09-24T11:29:49;8.93;;;1.90;;
59147;SDS011;44930;52.878;6.168;2022-09-24T11:32:32;14.70;;;1.77;;
59147;SDS011;44930;52.878;6.168;2022-09-24T11:38:07;10.65;;;1.95;;
59147;SDS011;44930;52.878;6.168;2022-09-24T11:43:25;10.80;;;1.55;;
59147;SDS011;44930;52.878;6.168;2022-09-24T11:46:16;7.45;;;1.90;;
59147;SDS011;44930;52.878;6.168;2022-09-24T11:51:59;7.90;;;1.20;;
59147;SDS011;44930;52.878;6.168;2022-09-24T11:54:46;5.38;;;1.15;;
59147;SDS011;44930;52.878;6.168;2022-09-24T11:57:15;4.80;;;1.10;;
59147;SDS011;44930;52.878;6.168;2022-09-24T12:02:36;11.33;;;1.40;;
59147;SDS011;44930;52.878;6.168;2022-09-24T12:05:25;8.70;;;1.98;;
59147;SDS011;44930;52.878;6.168;2022-09-24T12:08:04;8.85;;;1.45;;
59147;SDS011;44930;52.878;6.168;2022-09-24T12:10:38;8.02;;;2.15;;
59147;SDS011;44930;52.878;6.168;2022-09-24T12:13:19;7.40;;;1.10;;
59147;SDS011;44930;52.878;6.168;2022-09-24T12:15:54;7.20;;;1.38;;
59147;SDS011;44930;52.878;6.168;2022-09-24T12:18:29;9.77;;;1.38;;
59147;SDS011;44930;52.878;6.168;2022-09-24T12:21:00;9.38;;;1.17;;
59147;SDS011;44930;52.878;6.168;2022-09-24T12:23:31;9.98;;;1.83;;
59147;SDS011;44930;52.878;6.168;2022-09-24T12:26:03;7.00;;;2.13;;
59147;SDS011;44930;52.878;6.168;2022-09-24T12:28:33;8.18;;;1.27;;
59147;SDS011;44930;52.878;6.168;2022-09-24T12:31:28;9.27;;;1.75;;
59147;SDS011;44930;52.878;6.168;2022-09-24T12:34:39;12.50;;;1.52;;
59147;SDS011;44930;52.878;6.168;2022-09-24T12:37:20;11.13;;;1.77;;
59147;SDS011;44930;52.878;6.168;2022-09-24T12:39:52;4.43;;;1.20;;
59147;SDS011;44930;52.878;6.168;2022-09-24T12:42:22;16.15;;;2.75;;
59147;SDS011;44930;52.878;6.168;2022-09-24T12:44:52;7.45;;;1.45;;
59147;SDS011;44930;52.878;6.168;2022-09-24T12:47:20;6.70;;;1.35;;
59147;SDS011;44930;52.878;6.168;2022-09-24T12:49:49;12.60;;;2.42;;
59147;SDS011;44930;52.878;6.168;2022-09-24T12:52:24;5.00;;;1.63;;
59147;SDS011;44930;52.878;6.168;2022-09-24T12:55:02;15.02;;;2.55;;
59147;SDS011;44930;52.878;6.168;2022-09-24T12:57:31;7.32;;;1.27;;
59147;SDS011;44930;52.878;6.168;2022-09-24T13:00:31;7.00;;;1.47;;
59147;SDS011;44930;52.878;6.168;2022-09-24T13:02:55;7.63;;;1.77;;
59147;SDS011;44930;52.878;6.168;2022-09-24T13:08:00;10.18;;;2.17;;
59147;SDS011;44930;52.878;6.168;2022-09-24T13:10:32;8.57;;;1.52;;
59147;SDS011;44930;52.878;6.168;2022-09-24T13:13:13;11.48;;;2.22;;
59147;SDS011;44930;52.878;6.168;2022-09-24T13:15:46;11.77;;;2.28;;
59147;SDS011;44930;52.878;6.168;2022-09-24T13:18:23;8.68;;;1.70;;
59147;SDS011;44930;52.878;6.168;2022-09-24T13:21:00;7.85;;;1.58;;
59147;SDS011;44930;52.878;6.168;2022-09-24T13:23:41;13.80;;;1.98;;
59147;SDS011;44930;52.878;6.168;2022-09-24T13:26:12;11.70;;;1.65;;
59147;SDS011;44930;52.878;6.168;2022-09-24T13:28:51;8.32;;;1.88;;
59147;SDS011;44930;52.878;6.168;2022-09-24T13:34:21;9.93;;;2.03;;
59147;SDS011;44930;52.878;6.168;2022-09-24T13:36:58;8.73;;;1.88;;
59147;SDS011;44930;52.878;6.168;2022-09-24T13:39:50;8.40;;;1.50;;
59147;SDS011;44930;52.878;6.168;2022-09-24T13:42:34;7.10;;;1.42;;
59147;SDS011;44930;52.878;6.168;2022-09-24T13:45:10;7.43;;;1.45;;
59147;SDS011;44930;52.878;6.168;2022-09-24T13:47:42;6.75;;;1.48;;
59147;SDS011;44930;52.878;6.168;2022-09-24T13:50:16;6.00;;;1.30;;
59147;SDS011;44930;52.878;6.168;2022-09-24T13:55:35;5.95;;;1.08;;
59147;SDS011;44930;52.878;6.168;2022-09-24T13:58:04;9.60;;;1.30;;
59147;SDS011;44930;52.878;6.168;2022-09-24T14:00:30;8.05;;;1.05;;
59147;SDS011;44930;52.878;6.168;2022-09-24T14:03:00;7.10;;;1.42;;
59147;SDS011;44930;52.878;6.168;2022-09-24T14:05:45;6.28;;;1.27;;
59147;SDS011;44930;52.878;6.168;2022-09-24T14:08:12;8.63;;;1.50;;
59147;SDS011;44930;52.878;6.168;2022-09-24T14:10:39;6.63;;;1.42;;
59147;SDS011;44930;52.878;6.168;2022-09-24T14:15:34;13.27;;;1.83;;
59147;SDS011;44930;52.878;6.168;2022-09-24T14:18:00;7.57;;;1.27;;
59147;SDS011;44930;52.878;6.168;2022-09-24T14:20:27;8.25;;;2.00;;
59147;SDS011;44930;52.878;6.168;2022-09-24T14:22:54;6.25;;;1.33;;
59147;SDS011;44930;52.878;6.168;2022-09-24T14:25:30;4.28;;;1.02;;
59147;SDS011;44930;52.878;6.168;2022-09-24T14:27:59;4.38;;;1.00;;
59147;SDS011;44930;52.878;6.168;2022-09-24T14:30:27;7.38;;;1.67;;
59147;SDS011;44930;52.878;6.168;2022-09-24T14:32:56;10.77;;;1.58;;
59147;SDS011;44930;52.878;6.168;2022-09-24T14:35:28;7.93;;;1.33;;
59147;SDS011;44930;52.878;6.168;2022-09-24T14:38:02;3.63;;;1.27;;
59147;SDS011;44930;52.878;6.168;2022-09-24T14:40:46;6.63;;;0.90;;
59147;SDS011;44930;52.878;6.168;2022-09-24T14:45:47;5.60;;;0.98;;
59147;SDS011;44930;52.878;6.168;2022-09-24T14:48:47;6.65;;;1.20;;
59147;SDS011;44930;52.878;6.168;2022-09-24T14:56:27;4.85;;;1.05;;
59147;SDS011;44930;52.878;6.168;2022-09-24T14:58:53;9.48;;;1.20;;
59147;SDS011;44930;52.878;6.168;2022-09-24T15:01:19;9.88;;;1.20;;
59147;SDS011;44930;52.878;6.168;2022-09-24T15:03:48;4.63;;;1.25;;
59147;SDS011;44930;52.878;6.168;2022-09-24T15:06:18;3.83;;;1.20;;
59147;SDS011;44930;52.878;6.168;2022-09-24T15:08:58;10.63;;;1.50;;
59147;SDS011;44930;52.878;6.168;2022-09-24T15:11:27;10.30;;;1.45;;
59147;SDS011;44930;52.878;6.168;2022-09-24T15:14:41;9.10;;;1.60;;
59147;SDS011;44930;52.878;6.168;2022-09-24T15:16:44;4.57;;;1.20;;
59147;SDS011;44930;52.878;6.168;2022-09-24T15:19:17;7.40;;;1.70;;
59147;SDS011;44930;52.878;6.168;2022-09-24T15:21:50;7.45;;;1.30;;
59147;SDS011;44930;52.878;6.168;2022-09-24T15:24:17;9.10;;;1.75;;
59147;SDS011;44930;52.878;6.168;2022-09-24T15:27:00;8.00;;;1.25;;
59147;SDS011;44930;52.878;6.168;2022-09-24T15:29:26;13.43;;;1.60;;
59147;SDS011;44930;52.878;6.168;2022-09-24T15:31:52;7.78;;;1.38;;
59147;SDS011;44930;52.878;6.168;2022-09-24T15:34:20;8.38;;;1.30;;
59147;SDS011;44930;52.878;6.168;2022-09-24T15:36:46;5.47;;;1.25;;
59147;SDS011;44930;52.878;6.168;2022-09-24T15:39:12;5.72;;;1.30;;
59147;SDS011;44930;52.878;6.168;2022-09-24T15:41:40;7.43;;;1.38;;
59147;SDS011;44930;52.878;6.168;2022-09-24T15:44:07;12.95;;;1.63;;
59147;SDS011;44930;52.878;6.168;2022-09-24T15:46:46;9.13;;;2.38;;
59147;SDS011;44930;52.878;6.168;2022-09-24T15:49:15;8.25;;;1.55;;
59147;SDS011;44930;52.878;6.168;2022-09-24T15:51:45;5.22;;;1.10;;
59147;SDS011;44930;52.878;6.168;2022-09-24T15:54:23;11.48;;;1.60;;
59147;SDS011;44930;52.878;6.168;2022-09-24T15:56:49;4.25;;;1.10;;
59147;SDS011;44930;52.878;6.168;2022-09-24T15:59:16;6.93;;;1.40;;
59147;SDS011;44930;52.878;6.168;2022-09-24T16:01:43;9.25;;;2.55;;
59147;SDS011;44930;52.878;6.168;2022-09-24T16:04:10;10.25;;;2.15;;
59147;SDS011;44930;52.878;6.168;2022-09-24T16:06:36;8.02;;;1.80;;
59147;SDS011;44930;52.878;6.168;2022-09-24T16:09:02;6.95;;;1.45;;
59147;SDS011;44930;52.878;6.168;2022-09-24T16:11:28;11.57;;;1.65;;
59147;SDS011;44930;52.878;6.168;2022-09-24T16:13:54;7.82;;;1.25;;
59147;SDS011;44930;52.878;6.168;2022-09-24T16:16:19;11.50;;;2.05;;
59147;SDS011;44930;52.878;6.168;2022-09-24T16:18:45;9.15;;;1.88;;
59147;SDS011;44930;52.878;6.168;2022-09-24T16:21:10;7.40;;;1.98;;
59147;SDS011;44930;52.878;6.168;2022-09-24T16:23:36;6.60;;;1.30;;
59147;SDS011;44930;52.878;6.168;2022-09-24T16:26:02;10.95;;;1.50;;
59147;SDS011;44930;52.878;6.168;2022-09-24T16:28:28;6.72;;;1.58;;